Decoded Metar for YGEL ( in ) (IATA:) | Meteo·Mobile Aviation Weather
aviador You're here:

YGEL Decoded Metar

in
Report Time2019-01-20 11:00:00
UTC Time2019-01-20 11:41:11
Flight Rules vfr VFR
Wind160° at 15 kt
W.Decomp.*RWY 14: 14.1 kt HW 5.1 kt RCW
RWY 21: 9.6 kt HW 11.5 kt LCW
RWY 08: 2.6 kt HW 14.8 kt RCW
W.Rank160° ranks 8
Current wind is above 160° avg. (9.5)
Visibility9999 m
Phenomena:N/A
Clouds:N/A
Expected CloudBase > 4,000 ft AGL from Temp-Dew spread
CeilingNone
Temp27°C
Dew Point17°C (54% RH)
Heat Index27.7°C
AAT23.9°C
QNH1008 hPa
Raw Report
METAR YGEL 201100Z AUTO 16015KT 9999 // NCD 27/17 Q1008=

Extra information for YGEL:More info

Social comments